# Tabular Observed and Forecast Hydrograph Information
#
# Location: Cosumnes River - Michigan Bar (MHBC1)
#
# File Generation Time: 05/03/2026 at 08:46 AM PDT
# Data Interval: 1 Hour
#
# Most Recent Date & Time of Maximum Observed: 04/28/2026 at 02:00 PM PDT
# Maximum Observed Stage: 5.30 Feet
# Maximum Observed Flow: 1087 cfs
#
# Earliest Date & Time of Maximum Forecast: 05/03/2026 at 09:00 AM PDT
# Maximum Forecast Stage: 4.74 Feet
# Maximum Forecast Flow: 658 cfs
#
# OBSERVED
#
# Date & Time (Local) Stage (Feet) Flow (cfs) Trend Observed Status
# ---------------------------------------------------------------------------------
04/28/2026 08 AM PDT 5.27 1060 Normal
04/28/2026 09 AM PDT 5.26 1051 - Normal
04/28/2026 10 AM PDT 5.27 1060 + Normal
04/28/2026 11 AM PDT 5.29 1078 + Normal
04/28/2026 12 PM PDT 5.29 1078 0 Normal
04/28/2026 01 PM PDT 5.29 1078 0 Normal
04/28/2026 02 PM PDT 5.30 1087 + Normal
04/28/2026 03 PM PDT 5.19 990 - Normal
04/28/2026 04 PM PDT 5.19 990 0 Normal
04/28/2026 05 PM PDT 5.16 965 - Normal
04/28/2026 06 PM PDT 5.17 973 + Normal
04/28/2026 07 PM PDT 5.15 956 - Normal
04/28/2026 08 PM PDT 5.15 956 0 Normal
04/28/2026 09 PM PDT 5.14 948 - Normal
04/28/2026 10 PM PDT 5.15 956 + Normal
04/28/2026 11 PM PDT 5.14 948 - Normal
04/29/2026 12 AM PDT 5.12 932 - Normal
04/29/2026 01 AM PDT 5.12 932 0 Normal
04/29/2026 02 AM PDT 5.12 932 0 Normal
04/29/2026 03 AM PDT 5.13 940 + Normal
04/29/2026 04 AM PDT 5.14 948 + Normal
04/29/2026 05 AM PDT 5.16 965 + Normal
04/29/2026 06 AM PDT 5.17 973 + Normal
04/29/2026 07 AM PDT 5.19 990 + Normal
04/29/2026 08 AM PDT 5.20 998 + Normal
04/29/2026 09 AM PDT 5.22 1015 + Normal
04/29/2026 10 AM PDT 5.23 1024 + Normal
04/29/2026 11 AM PDT 5.19 990 - Normal
04/29/2026 12 PM PDT 5.19 990 0 Normal
04/29/2026 01 PM PDT 5.17 973 - Normal
04/29/2026 02 PM PDT 5.17 973 0 Normal
04/29/2026 03 PM PDT 5.16 965 - Normal
04/29/2026 04 PM PDT 5.15 956 - Normal
04/29/2026 05 PM PDT 5.14 948 - Normal
04/29/2026 06 PM PDT 5.13 940 - Normal
04/29/2026 07 PM PDT 5.12 932 - Normal
04/29/2026 08 PM PDT 5.11 924 - Normal
04/29/2026 09 PM PDT 5.10 916 - Normal
04/29/2026 10 PM PDT 5.09 908 - Normal
04/29/2026 11 PM PDT 5.09 908 0 Normal
04/30/2026 12 AM PDT 5.08 900 - Normal
04/30/2026 01 AM PDT 5.07 892 - Normal
04/30/2026 02 AM PDT 5.07 892 0 Normal
04/30/2026 03 AM PDT 5.06 885 - Normal
04/30/2026 04 AM PDT 5.05 877 - Normal
04/30/2026 05 AM PDT 5.05 877 0 Normal
04/30/2026 06 AM PDT 5.04 869 - Normal
04/30/2026 07 AM PDT 5.03 861 - Normal
04/30/2026 08 AM PDT 5.01 846 - Normal
04/30/2026 09 AM PDT 5.00 839 - Normal
04/30/2026 10 AM PDT 5.00 839 0 Normal
04/30/2026 11 AM PDT 5.00 839 0 Normal
04/30/2026 12 PM PDT 5.00 839 0 Normal
04/30/2026 01 PM PDT 5.00 839 0 Normal
04/30/2026 02 PM PDT 5.00 839 0 Normal
04/30/2026 03 PM PDT 5.00 839 0 Normal
04/30/2026 04 PM PDT 5.00 839 0 Normal
04/30/2026 05 PM PDT 5.00 839 0 Normal
04/30/2026 06 PM PDT 4.99 831 - Normal
04/30/2026 07 PM PDT 4.99 831 0 Normal
04/30/2026 08 PM PDT 4.99 831 0 Normal
04/30/2026 09 PM PDT 4.98 824 - Normal
04/30/2026 10 PM PDT 4.97 816 - Normal
04/30/2026 11 PM PDT 4.98 824 + Normal
05/01/2026 12 AM PDT 4.97 816 - Normal
05/01/2026 01 AM PDT 4.97 816 0 Normal
05/01/2026 02 AM PDT 4.96 809 - Normal
05/01/2026 03 AM PDT 4.96 809 0 Normal
05/01/2026 04 AM PDT 4.96 809 0 Normal
05/01/2026 05 AM PDT 4.95 802 - Normal
05/01/2026 06 AM PDT 4.95 802 0 Normal
05/01/2026 07 AM PDT 4.93 787 - Normal
05/01/2026 08 AM PDT 4.93 787 0 Normal
05/01/2026 09 AM PDT 4.92 780 - Normal
05/01/2026 10 AM PDT 4.92 780 0 Normal
05/01/2026 11 AM PDT 4.92 780 0 Normal
05/01/2026 12 PM PDT 4.92 780 0 Normal
05/01/2026 01 PM PDT 4.91 773 - Normal
05/01/2026 02 PM PDT 4.91 773 0 Normal
05/01/2026 03 PM PDT 4.91 773 0 Normal
05/01/2026 04 PM PDT 4.91 773 0 Normal
05/01/2026 05 PM PDT 4.91 773 0 Normal
05/01/2026 06 PM PDT 4.92 780 + Normal
05/01/2026 07 PM PDT 4.90 766 - Normal
05/01/2026 08 PM PDT 4.90 766 0 Normal
05/01/2026 09 PM PDT 4.90 766 0 Normal
05/01/2026 10 PM PDT 4.90 766 0 Normal
05/01/2026 11 PM PDT 4.90 766 0 Normal
05/02/2026 12 AM PDT 4.90 766 0 Normal
05/02/2026 01 AM PDT 4.89 759 - Normal
05/02/2026 02 AM PDT 4.87 745 - Normal
05/02/2026 03 AM PDT 4.87 745 0 Normal
05/02/2026 04 AM PDT 4.85 731 - Normal
05/02/2026 05 AM PDT 4.83 717 - Normal
05/02/2026 06 AM PDT 4.82 710 - Normal
05/02/2026 07 AM PDT 4.80 697 - Normal
05/02/2026 08 AM PDT 4.81 704 + Normal
05/02/2026 09 AM PDT 4.79 690 - Normal
05/02/2026 10 AM PDT 4.79 690 0 Normal
05/02/2026 11 AM PDT 4.79 690 0 Normal
05/02/2026 12 PM PDT 4.80 697 + Normal
05/02/2026 01 PM PDT 4.79 690 - Normal
05/02/2026 02 PM PDT 4.80 697 + Normal
05/02/2026 03 PM PDT 4.81 704 + Normal
05/02/2026 04 PM PDT 4.79 690 - Normal
05/02/2026 05 PM PDT 4.80 697 + Normal
05/02/2026 06 PM PDT 4.79 690 - Normal
05/02/2026 07 PM PDT 4.81 704 + Normal
05/02/2026 08 PM PDT 4.80 697 - Normal
05/02/2026 09 PM PDT 4.80 697 0 Normal
05/02/2026 10 PM PDT 4.79 690 - Normal
05/02/2026 11 PM PDT 4.79 690 0 Normal
05/03/2026 12 AM PDT 4.79 690 0 Normal
05/03/2026 01 AM PDT 4.79 690 0 Normal
05/03/2026 02 AM PDT 4.77 677 - Normal
05/03/2026 03 AM PDT 4.78 684 + Normal
05/03/2026 04 AM PDT 4.78 684 0 Normal
05/03/2026 05 AM PDT 4.77 677 - Normal
05/03/2026 06 AM PDT 4.75 664 - Normal
05/03/2026 07 AM PDT 4.75 664 0 Normal
05/03/2026 08 AM PDT 4.74 658 - Normal
#
# FORECAST
#
# Date & Time (Local) Stage (Feet) Flow (cfs) Trend Forecast Status
# ---------------------------------------------------------------------------------
05/03/2026 09 AM PDT 4.74 658 Normal
05/03/2026 10 AM PDT 4.73 651 - Normal
05/03/2026 11 AM PDT 4.73 651 0 Normal
05/03/2026 12 PM PDT 4.73 651 0 Normal
05/03/2026 01 PM PDT 4.73 651 0 Normal
05/03/2026 02 PM PDT 4.72 645 - Normal
05/03/2026 03 PM PDT 4.72 645 0 Normal
05/03/2026 04 PM PDT 4.72 645 0 Normal
05/03/2026 05 PM PDT 4.71 639 - Normal
05/03/2026 06 PM PDT 4.71 639 0 Normal
05/03/2026 07 PM PDT 4.71 639 0 Normal
05/03/2026 08 PM PDT 4.70 632 - Normal
05/03/2026 09 PM PDT 4.70 632 0 Normal
05/03/2026 10 PM PDT 4.70 632 0 Normal
05/03/2026 11 PM PDT 4.69 626 - Normal
05/04/2026 12 AM PDT 4.69 626 0 Normal
05/04/2026 01 AM PDT 4.68 620 - Normal
05/04/2026 02 AM PDT 4.68 620 0 Normal
05/04/2026 03 AM PDT 4.68 620 0 Normal
05/04/2026 04 AM PDT 4.68 620 0 Normal
05/04/2026 05 AM PDT 4.67 614 - Normal
05/04/2026 06 AM PDT 4.67 614 0 Normal
05/04/2026 07 AM PDT 4.67 614 0 Normal
05/04/2026 08 AM PDT 4.67 614 0 Normal
05/04/2026 09 AM PDT 4.66 608 - Normal
05/04/2026 10 AM PDT 4.66 608 0 Normal
05/04/2026 11 AM PDT 4.66 608 0 Normal
05/04/2026 12 PM PDT 4.65 601 - Normal
05/04/2026 01 PM PDT 4.65 601 0 Normal
05/04/2026 02 PM PDT 4.65 601 0 Normal
05/04/2026 03 PM PDT 4.65 601 0 Normal
05/04/2026 04 PM PDT 4.64 595 - Normal
05/04/2026 05 PM PDT 4.64 595 0 Normal
05/04/2026 06 PM PDT 4.64 595 0 Normal
05/04/2026 07 PM PDT 4.64 595 0 Normal
05/04/2026 08 PM PDT 4.64 595 0 Normal
05/04/2026 09 PM PDT 4.64 595 0 Normal
05/04/2026 10 PM PDT 4.64 595 0 Normal
05/04/2026 11 PM PDT 4.64 595 0 Normal
05/05/2026 12 AM PDT 4.64 595 0 Normal
05/05/2026 01 AM PDT 4.64 595 0 Normal
05/05/2026 02 AM PDT 4.64 595 0 Normal
05/05/2026 03 AM PDT 4.64 595 0 Normal
05/05/2026 04 AM PDT 4.65 601 + Normal
05/05/2026 05 AM PDT 4.65 601 0 Normal
05/05/2026 06 AM PDT 4.65 601 0 Normal
05/05/2026 07 AM PDT 4.65 601 0 Normal
05/05/2026 08 AM PDT 4.66 608 + Normal
05/05/2026 09 AM PDT 4.66 608 0 Normal
05/05/2026 10 AM PDT 4.67 614 + Normal
05/05/2026 11 AM PDT 4.67 614 0 Normal
05/05/2026 12 PM PDT 4.68 620 + Normal
05/05/2026 01 PM PDT 4.68 620 0 Normal
05/05/2026 02 PM PDT 4.69 626 + Normal
05/05/2026 03 PM PDT 4.70 632 + Normal
05/05/2026 04 PM PDT 4.70 632 0 Normal
05/05/2026 05 PM PDT 4.71 639 + Normal
05/05/2026 06 PM PDT 4.71 639 0 Normal
05/05/2026 07 PM PDT 4.71 639 0 Normal
05/05/2026 08 PM PDT 4.71 639 0 Normal
05/05/2026 09 PM PDT 4.71 639 0 Normal
05/05/2026 10 PM PDT 4.71 639 0 Normal
05/05/2026 11 PM PDT 4.71 639 0 Normal
05/06/2026 12 AM PDT 4.70 632 - Normal
05/06/2026 01 AM PDT 4.70 632 0 Normal
05/06/2026 02 AM PDT 4.70 632 0 Normal
05/06/2026 03 AM PDT 4.69 626 - Normal
05/06/2026 04 AM PDT 4.69 626 0 Normal
05/06/2026 05 AM PDT 4.68 620 - Normal
05/06/2026 06 AM PDT 4.68 620 0 Normal
05/06/2026 07 AM PDT 4.67 614 - Normal
05/06/2026 08 AM PDT 4.67 614 0 Normal
05/06/2026 09 AM PDT 4.66 608 - Normal
05/06/2026 10 AM PDT 4.66 608 0 Normal
05/06/2026 11 AM PDT 4.66 608 0 Normal
05/06/2026 12 PM PDT 4.65 601 - Normal
05/06/2026 01 PM PDT 4.65 601 0 Normal
05/06/2026 02 PM PDT 4.64 595 - Normal
05/06/2026 03 PM PDT 4.64 595 0 Normal
05/06/2026 04 PM PDT 4.64 595 0 Normal
05/06/2026 05 PM PDT 4.63 589 - Normal
05/06/2026 06 PM PDT 4.63 589 0 Normal
05/06/2026 07 PM PDT 4.62 583 - Normal
05/06/2026 08 PM PDT 4.62 583 0 Normal
05/06/2026 09 PM PDT 4.62 583 0 Normal
05/06/2026 10 PM PDT 4.61 578 - Normal
05/06/2026 11 PM PDT 4.61 578 0 Normal
05/07/2026 12 AM PDT 4.61 578 0 Normal
05/07/2026 01 AM PDT 4.61 578 0 Normal
05/07/2026 02 AM PDT 4.60 572 - Normal
05/07/2026 03 AM PDT 4.60 572 0 Normal
05/07/2026 04 AM PDT 4.60 572 0 Normal
05/07/2026 05 AM PDT 4.60 572 0 Normal
05/07/2026 06 AM PDT 4.59 566 - Normal
05/07/2026 07 AM PDT 4.59 566 0 Normal
05/07/2026 08 AM PDT 4.59 566 0 Normal
05/07/2026 09 AM PDT 4.58 560 - Normal
05/07/2026 10 AM PDT 4.58 560 0 Normal
05/07/2026 11 AM PDT 4.58 560 0 Normal
05/07/2026 12 PM PDT 4.58 560 0 Normal
05/07/2026 01 PM PDT 4.57 554 - Normal
05/07/2026 02 PM PDT 4.57 554 0 Normal
05/07/2026 03 PM PDT 4.57 554 0 Normal
05/07/2026 04 PM PDT 4.57 554 0 Normal
05/07/2026 05 PM PDT 4.56 549 - Normal
05/07/2026 06 PM PDT 4.56 549 0 Normal
05/07/2026 07 PM PDT 4.56 549 0 Normal
05/07/2026 08 PM PDT 4.55 543 - Normal
05/07/2026 09 PM PDT 4.55 543 0 Normal
05/07/2026 10 PM PDT 4.55 543 0 Normal
05/07/2026 11 PM PDT 4.54 537 - Normal
05/08/2026 12 AM PDT 4.54 537 0 Normal
05/08/2026 01 AM PDT 4.54 537 0 Normal
05/08/2026 02 AM PDT 4.54 537 0 Normal
05/08/2026 03 AM PDT 4.53 532 - Normal
05/08/2026 04 AM PDT 4.53 532 0 Normal
05/08/2026 05 AM PDT 4.53 532 0 Normal
#
# NOTE 1: Stages are rounded to the nearest hundredth (.01) of a foot.
# NOTE 2: Flows are rounded to the nearest (1) cfs.
# NOTE 3: Trends are determined using hourly change in unrounded stage and flow.
# NOTE 4: Maximum Values are determined using unrounded stage and flow.
|